Saybrook, IL (61770)

7:15 AM CDT on July 30, 2016 (GMT -0500)
APRSWXNET | | Change Station
Active Advisory: Special Statement Active Notice: Local Storm Report

Elev 862 ft 40.45 °N, 88.63 °W | Updated 20 minutes ago

Overcast
Overcast
65 °F
Feels Like 65 °F
N
0
Wind Variable Wind from NW
Gusts 4.0 mph

Today
High -- | Low -- °F
--% Chance of Precip.
Yesterday
High -- | Low -- °F
Precip. -- in
Pressure 29.97 in
Visibility 0.8 miles
Clouds Overcast 300 ft
Dew Point 65 °F
Humidity 99%
Rainfall in
Snow Depth Not available.
5:50 AM 8:10 PM
Waning Crescent, 14% visible
SPECI KBMI 301158Z COR VRB03KT 3/4SM R20/4000VP6000FT BR OVC003 19/19 A2997 RMK AO2
Pressure 29.97 in
Visibility 0.8 miles
Clouds Overcast 300 ft
Dew Point 65 °F
Humidity 99%
Rainfall in
Snow Depth Not available.
5:50 AM 8:10 PM
Waning Crescent, 14% visible
SPECI KBMI 301158Z COR VRB03KT 3/4SM R20/4000VP6000FT BR OVC003 19/19 A2997 RMK AO2

10-Day Weather Forecast

Almanac

Astronomy

Jul. 30, 2016 Rise Set
Actual Time
Civil Twilight
Nautical Twilight
Astronomical Twilight
Moon
Length of Visible Light
Length of Day
Tomorrow will be .
, % of the Moon is Illuminated

Today's Extremes

State Highs State Lows

Community

WunderPhotos

Upload Photos

1,928,543 photos uploaded!

WunderBlog® & News

Nearby

Air Quality

  Air Quality AQ Index Pollutant
Not available.

Snow Depth

Station Depth Elevation

Earthquake Activity

City Distance Mag. Time & Date
Minimum magnitude displayed is 2.5.

Coastal Water Temperatures

Place Temperature

Stations

Nearby Weather Stations

Station Location Temp. Windchill Dew Point Humidity Wind Precip. Elev Updated Type
                   

Watches & Warnings

Special Statement
Issued: 7:02 AM CDT Jul. 30, 2016 – National Weather Service

Fog with patches of dense fog has developed across much of
central Illinois this morning. Travelers should use caution as
visibility may vary over short distances and could fall to below
one half mile at times. Fog will likely dissipate by 9 am.


Onton

702 am CDT Sat Jul 30 2016

Fog with patches of dense fog has developed across much of
central Illinois this morning. Travelers should use caution as
visibility may vary over short distances and could fall to below
one half mile at times. Fog will likely dissipate by 9 am.


Onton


531 am CDT Sat Jul 30 2016

Patchy dense fog has developed across portions of central Illinois
this morning. Travelers should use caution as visibility may vary
over short distances and could fall to below one half mile at
times. Fog will likely dissipate by 9 am.


Onton

531 am CDT Sat Jul 30 2016

Patchy dense fog has developed across portions of central Illinois
this morning. Travelers should use caution as visibility may vary
over short distances and could fall to below one half mile at
times. Fog will likely dissipate by 9 am.


Onton